TA92 weather

Public forecast

Using degrees Fahrenheit for public forecast. Weather courtesy of forecast.io.

Closest aviation weather report (METAR) to Rowan Heliport

Closest report is William P Hobby Airport, 1.0 nm (1.8 km) NNE. Retrieved 2020/08/11 11:53 UTC (33 minutes ago):

KHOU 111153Z 15004KT 10SM SCT022 27/24 A3000 RMK AO2 SLP163 T02720244 10283 20272 53006

Closest aviation forecast (TAF) to Rowan Heliport

Closest forecast is William P Hobby Airport, 1.0 nm (1.8 km) NNE. Retrieved 2020/08/11 12:36 UTC (0 seconds ago):

TAF KHOU 111134Z 1112/1212 17008KT P6SM FEW020 FM111400 20005KT P6SM SCT035 FM111700 17011KT P6SM SCT040 FM120200 16006KT P6SM FEW025